createdAt,value
2023-08-16T00:00:20.797Z,17.64
2023-08-16T00:02:57.729Z,17.63
2023-08-16T00:05:28.369Z,17.55
2023-08-16T00:08:00.307Z,17.63
2023-08-16T00:10:33.583Z,17.61
2023-08-16T00:13:09.548Z,17.68
2023-08-16T00:15:40.746Z,17.71
2023-08-16T00:18:11.625Z,17.58
2023-08-16T00:20:44.301Z,17.46
2023-08-16T00:23:20.009Z,17.44
2023-08-16T00:25:52.574Z,17.39
2023-08-16T00:28:25.224Z,17.54
2023-08-16T00:30:57.689Z,17.50
2023-08-16T00:33:29.140Z,17.44
2023-08-16T00:35:59.889Z,17.50
2023-08-16T00:38:29.877Z,17.37
2023-08-16T00:41:03.942Z,17.24
2023-08-16T00:43:36.680Z,17.16
2023-08-16T00:46:12.855Z,17.19
2023-08-16T00:48:47.241Z,17.27
2023-08-16T00:51:18.325Z,17.19
2023-08-16T00:53:51.444Z,17.16
2023-08-16T00:56:25.050Z,17.16
2023-08-16T00:58:56.969Z,17.12
2023-08-16T01:01:33.412Z,17.00
2023-08-16T01:04:06.380Z,16.98
2023-08-16T01:06:37.646Z,16.95
2023-08-16T01:09:12.641Z,16.85
2023-08-16T01:12:02.837Z,16.83
2023-08-16T01:14:49.799Z,16.78
2023-08-16T01:17:24.466Z,16.75
2023-08-16T01:19:59.438Z,16.67
2023-08-16T01:22:59.979Z,16.61
2023-08-16T01:25:52.000Z,16.57
2023-08-16T01:28:24.139Z,16.51
2023-08-16T01:30:56.648Z,16.42
2023-08-16T01:33:29.438Z,16.48
2023-08-16T01:36:03.109Z,16.54
2023-08-16T01:38:33.741Z,16.44
2023-08-16T01:41:22.806Z,16.40
2023-08-16T01:43:56.048Z,16.31
2023-08-16T01:46:30.407Z,16.34
2023-08-16T01:49:02.074Z,16.37
2023-08-16T01:51:33.624Z,16.35
2023-08-16T01:54:05.332Z,16.31
2023-08-16T01:56:37.317Z,16.31
2023-08-16T01:59:08.354Z,16.25
2023-08-16T02:01:39.973Z,16.21
2023-08-16T02:04:10.574Z,16.14
2023-08-16T02:06:43.502Z,16.07
2023-08-16T02:09:14.619Z,15.97
2023-08-16T02:11:46.343Z,15.99
2023-08-16T02:14:20.202Z,15.99
2023-08-16T02:16:50.767Z,16.00
2023-08-16T02:19:21.797Z,16.00
2023-08-16T02:21:53.399Z,16.04
2023-08-16T02:24:25.741Z,15.99
2023-08-16T02:26:57.680Z,15.94
2023-08-16T02:29:29.608Z,15.83
2023-08-16T02:31:59.789Z,15.78
2023-08-16T02:34:33.424Z,15.79
2023-08-16T02:37:06.954Z,15.76
2023-08-16T02:39:40.450Z,15.67
2023-08-16T02:42:10.494Z,15.59
2023-08-16T02:44:42.336Z,15.53
2023-08-16T02:47:13.402Z,15.52
2023-08-16T02:49:45.353Z,15.48
2023-08-16T02:52:15.653Z,15.48
2023-08-16T02:54:46.918Z,15.49
2023-08-16T02:57:21.016Z,15.41
2023-08-16T02:59:51.657Z,15.22
2023-08-16T03:02:22.427Z,15.15
2023-08-16T03:04:54.556Z,15.15
2023-08-16T03:07:25.792Z,15.21
2023-08-16T03:09:57.564Z,15.25
2023-08-16T03:12:28.961Z,15.17
2023-08-16T03:15:01.377Z,15.18
2023-08-16T03:17:33.641Z,15.15
2023-08-16T03:20:04.914Z,15.14
2023-08-16T03:22:38.666Z,15.07
2023-08-16T03:25:12.642Z,15.01
2023-08-16T03:27:46.150Z,15.12
2023-08-16T03:30:17.875Z,15.08
2023-08-16T03:32:48.568Z,15.14
2023-08-16T03:35:23.464Z,15.11
2023-08-16T03:37:54.923Z,15.14
2023-08-16T03:40:27.837Z,15.07
2023-08-16T03:42:59.466Z,15.01
2023-08-16T03:45:31.846Z,15.00
2023-08-16T03:48:04.820Z,14.94
2023-08-16T03:50:36.426Z,14.90
2023-08-16T03:53:08.867Z,14.97
2023-08-16T03:55:42.982Z,14.94
2023-08-16T03:58:15.674Z,14.85
2023-08-16T04:00:50.710Z,14.80
2023-08-16T04:03:23.934Z,14.69
2023-08-16T04:05:55.180Z,14.63
2023-08-16T04:08:28.923Z,14.56
2023-08-16T04:10:59.760Z,14.57
2023-08-16T04:13:31.872Z,14.61
2023-08-16T04:16:05.681Z,14.59
2023-08-16T04:18:40.182Z,14.64
2023-08-16T04:21:10.801Z,14.67
2023-08-16T04:23:41.712Z,14.61
2023-08-16T04:26:12.397Z,14.60
2023-08-16T04:28:44.127Z,14.57
2023-08-16T04:31:15.523Z,14.52
2023-08-16T04:33:47.413Z,14.44
2023-08-16T04:36:19.372Z,14.47
2023-08-16T04:38:51.754Z,14.43
2023-08-16T04:41:24.925Z,14.37
2023-08-16T04:43:54.616Z,14.44
2023-08-16T04:46:25.066Z,14.40
2023-08-16T04:49:00.160Z,14.39
2023-08-16T04:51:30.441Z,14.33
2023-08-16T04:54:00.447Z,14.18
2023-08-16T04:56:32.925Z,14.19
2023-08-16T04:59:05.730Z,14.19
2023-08-16T05:01:36.193Z,14.16
2023-08-16T05:04:09.242Z,14.16
2023-08-16T05:06:44.380Z,14.18
2023-08-16T05:09:17.498Z,14.04
2023-08-16T05:11:50.355Z,14.05
2023-08-16T05:14:20.374Z,14.04
2023-08-16T05:16:55.186Z,13.94
2023-08-16T05:19:26.475Z,13.99
2023-08-16T05:21:56.862Z,13.95
2023-08-16T05:24:26.965Z,13.89
2023-08-16T05:26:57.424Z,13.88
2023-08-16T05:29:30.891Z,13.85
2023-08-16T05:32:04.471Z,13.84
2023-08-16T05:34:34.574Z,13.78
2023-08-16T05:37:07.831Z,13.75
2023-08-16T05:39:43.080Z,13.70
2023-08-16T05:42:15.769Z,13.58
2023-08-16T05:44:46.572Z,13.51
2023-08-16T05:47:18.253Z,13.51
2023-08-16T05:49:50.429Z,13.47
2023-08-16T05:52:25.084Z,13.36
2023-08-16T05:54:56.368Z,13.27
2023-08-16T05:57:27.926Z,13.27
2023-08-16T05:59:59.765Z,13.34
2023-08-16T06:02:35.446Z,13.33
2023-08-16T06:05:07.114Z,13.33
2023-08-16T06:07:38.296Z,13.28
2023-08-16T06:10:11.504Z,13.30
2023-08-16T06:12:43.307Z,13.19
2023-08-16T06:15:19.209Z,13.14
2023-08-16T06:17:52.389Z,13.12
2023-08-16T06:20:25.092Z,13.04
2023-08-16T06:22:57.774Z,12.99
2023-08-16T06:25:28.451Z,13.07
2023-08-16T06:27:58.412Z,13.12
2023-08-16T06:30:29.849Z,13.03
2023-08-16T06:33:01.765Z,13.02
2023-08-16T06:35:34.654Z,13.04
2023-08-16T06:38:05.818Z,12.99
2023-08-16T06:40:38.086Z,12.99
2023-08-16T06:43:14.217Z,12.86
2023-08-16T06:45:45.394Z,12.79
2023-08-16T06:48:15.384Z,12.73
2023-08-16T06:50:47.883Z,12.76
2023-08-16T06:53:26.514Z,12.75
2023-08-16T06:55:59.304Z,12.69
2023-08-16T06:58:29.376Z,12.65
2023-08-16T07:01:00.953Z,12.68
2023-08-16T07:03:31.467Z,12.68
2023-08-16T07:06:01.514Z,12.72
2023-08-16T07:08:31.964Z,12.72
2023-08-16T07:11:03.760Z,12.62
2023-08-16T07:13:35.605Z,12.52
2023-08-16T07:16:08.561Z,12.52
2023-08-16T07:18:39.445Z,12.45
2023-08-16T07:21:14.451Z,12.44
2023-08-16T07:23:47.358Z,12.45
2023-08-16T07:26:18.678Z,12.42
2023-08-16T07:28:48.603Z,12.42
2023-08-16T07:31:18.971Z,12.45
2023-08-16T07:33:49.509Z,12.44
2023-08-16T07:36:21.326Z,12.38
2023-08-16T07:38:54.278Z,12.38
2023-08-16T07:41:25.169Z,12.38
2023-08-16T07:43:57.094Z,12.27
2023-08-16T07:46:27.641Z,12.27
2023-08-16T07:48:58.101Z,12.25
2023-08-16T07:51:30.417Z,12.17
2023-08-16T07:54:03.905Z,12.23
2023-08-16T07:56:39.487Z,12.20
2023-08-16T07:59:10.824Z,12.17
2023-08-16T08:01:45.480Z,12.07
2023-08-16T08:04:15.774Z,11.95
2023-08-16T08:06:50.215Z,12.01
2023-08-16T08:09:22.297Z,12.07
2023-08-16T08:11:56.965Z,12.05
2023-08-16T08:14:27.065Z,12.05
2023-08-16T08:16:59.048Z,12.03
2023-08-16T08:19:33.356Z,11.97
2023-08-16T08:22:03.597Z,11.83
2023-08-16T08:24:35.099Z,11.80
2023-08-16T08:27:10.126Z,11.83
2023-08-16T08:29:46.678Z,11.89
2023-08-16T08:32:17.213Z,11.91
2023-08-16T08:34:47.193Z,11.77
2023-08-16T08:37:19.177Z,11.76
2023-08-16T08:39:51.366Z,11.79
2023-08-16T08:42:24.072Z,11.79
2023-08-16T08:44:56.951Z,11.83
2023-08-16T08:47:30.458Z,11.70
2023-08-16T08:50:06.207Z,11.66
2023-08-16T08:52:37.166Z,11.66
2023-08-16T08:55:10.346Z,11.70
2023-08-16T08:57:47.143Z,11.70
2023-08-16T09:00:23.880Z,11.70
2023-08-16T09:02:55.046Z,11.61
2023-08-16T09:05:27.458Z,11.61
2023-08-16T09:07:59.394Z,11.56
2023-08-16T09:10:40.126Z,11.56
2023-08-16T09:13:15.845Z,11.53
2023-08-16T09:15:46.565Z,11.52
2023-08-16T09:18:23.922Z,11.46
2023-08-16T09:21:02.383Z,11.46
2023-08-16T09:23:36.182Z,11.40
2023-08-16T09:26:20.094Z,11.40
2023-08-16T09:28:50.784Z,11.38
2023-08-16T09:31:23.164Z,11.29
2023-08-16T09:34:03.443Z,11.29
2023-08-16T09:36:37.863Z,11.31
2023-08-16T09:39:13.921Z,11.34
2023-08-16T09:41:54.223Z,11.31
2023-08-16T09:44:35.900Z,11.31
2023-08-16T09:47:18.371Z,11.31
2023-08-16T09:49:53.298Z,11.24
2023-08-16T09:52:23.845Z,11.19
2023-08-16T09:54:56.253Z,11.24
2023-08-16T09:57:30.422Z,11.25
2023-08-16T10:00:04.077Z,11.21
2023-08-16T10:07:55.910Z,11.22
2023-08-16T10:10:29.730Z,11.24
2023-08-16T10:13:03.952Z,11.18
2023-08-16T10:15:36.477Z,11.14
2023-08-16T10:18:14.231Z,11.19
2023-08-16T10:20:50.666Z,11.18
2023-08-16T10:23:22.463Z,11.22
2023-08-16T10:25:56.987Z,11.29
2023-08-16T10:28:29.237Z,11.39
2023-08-16T10:33:48.751Z,11.39
2023-08-16T10:36:20.957Z,11.46
2023-08-16T10:38:59.466Z,11.49
2023-08-16T10:41:42.883Z,11.51
2023-08-16T10:44:25.787Z,11.66
2023-08-16T10:46:57.718Z,12.07
2023-08-16T10:49:39.434Z,12.45
2023-08-16T10:52:10.172Z,12.71
2023-08-16T10:54:43.431Z,12.91
2023-08-16T10:57:15.875Z,12.97
2023-08-16T10:59:50.482Z,13.28
2023-08-16T11:02:23.060Z,13.68
2023-08-16T11:04:54.226Z,14.15
2023-08-16T11:07:26.429Z,14.37
2023-08-16T11:10:05.412Z,14.67
2023-08-16T11:12:41.969Z,15.08
2023-08-16T11:15:13.040Z,15.35
2023-08-16T11:17:59.403Z,15.73
2023-08-16T11:20:40.554Z,15.96
2023-08-16T11:23:20.376Z,15.97
2023-08-16T11:25:51.943Z,16.03
2023-08-16T11:28:23.508Z,16.27
2023-08-16T11:31:01.335Z,16.21
2023-08-16T11:33:42.036Z,16.45
2023-08-16T11:36:17.747Z,16.72
2023-08-16T11:38:52.022Z,16.96
2023-08-16T11:41:23.777Z,17.44
2023-08-16T11:44:01.899Z,17.55
2023-08-16T11:46:50.914Z,17.67
2023-08-16T11:49:24.604Z,17.87
2023-08-16T11:51:55.028Z,17.97
2023-08-16T11:54:25.806Z,18.05
2023-08-16T11:56:57.456Z,17.92
2023-08-16T11:59:36.951Z,18.09
2023-08-16T12:02:13.403Z,18.49
2023-08-16T12:04:45.705Z,18.55
2023-08-16T12:07:20.218Z,18.40
2023-08-16T12:09:51.984Z,18.78
2023-08-16T12:12:25.342Z,19.14
2023-08-16T12:14:59.494Z,19.54
2023-08-16T12:17:33.204Z,19.58
2023-08-16T12:20:05.790Z,19.73
2023-08-16T12:22:37.432Z,20.00
2023-08-16T12:25:08.306Z,20.12
2023-08-16T12:27:42.961Z,20.17
2023-08-16T12:30:17.535Z,20.31
2023-08-16T12:32:49.693Z,20.49
2023-08-16T12:35:21.381Z,20.71
2023-08-16T12:40:27.509Z,21.20
2023-08-16T12:43:03.028Z,21.60
2023-08-16T12:45:34.709Z,21.63
2023-08-16T12:48:10.798Z,22.29
2023-08-16T12:50:41.627Z,22.12
2023-08-16T12:55:49.125Z,22.51
2023-08-16T12:58:22.619Z,22.59
2023-08-16T13:01:06.197Z,22.32
2023-08-16T13:03:38.950Z,22.46
2023-08-16T13:06:13.907Z,22.97
2023-08-16T13:08:49.603Z,23.15
2023-08-16T13:13:55.369Z,23.28
2023-08-16T13:16:44.185Z,23.15
2023-08-16T13:21:55.098Z,23.45
2023-08-16T13:31:57.185Z,24.06
2023-08-16T13:43:15.631Z,24.39
2023-08-16T13:46:13.751Z,25.14
2023-08-16T13:48:44.840Z,25.20
2023-08-16T13:51:14.904Z,25.38
2023-08-16T13:53:46.009Z,25.28
2023-08-16T13:56:18.757Z,26.00
2023-08-16T13:59:15.698Z,25.98
2023-08-16T14:01:46.396Z,25.45
2023-08-16T14:04:46.329Z,25.42
2023-08-16T14:07:40.299Z,26.35
2023-08-16T14:10:43.137Z,26.71
2023-08-16T14:17:19.082Z,27.24
2023-08-16T14:20:15.164Z,27.17
2023-08-16T14:23:18.634Z,27.00
2023-08-16T14:25:54.286Z,27.07
2023-08-16T14:28:27.760Z,27.29
2023-08-16T14:30:58.320Z,27.08
2023-08-16T14:33:33.900Z,26.92
2023-08-16T14:36:04.217Z,26.86
2023-08-16T14:38:37.712Z,27.10
2023-08-16T14:41:13.430Z,27.71
2023-08-16T14:43:44.058Z,27.74
2023-08-16T14:46:19.019Z,28.01
2023-08-16T14:48:49.172Z,27.88
2023-08-16T14:55:35.907Z,28.36
2023-08-16T14:59:15.935Z,28.36
2023-08-16T15:01:56.840Z,28.33
2023-08-16T15:04:29.982Z,28.35
2023-08-16T15:07:03.347Z,28.37
2023-08-16T15:09:34.497Z,28.97
2023-08-16T15:12:05.539Z,29.26
2023-08-16T15:14:36.297Z,29.15
2023-08-16T15:17:12.151Z,29.14
2023-08-16T15:19:43.602Z,29.38
2023-08-16T15:29:33.593Z,29.39
2023-08-16T15:32:05.931Z,29.94
2023-08-16T15:34:37.377Z,30.17
2023-08-16T15:37:08.144Z,29.94
2023-08-16T15:39:42.489Z,29.74
2023-08-16T15:42:14.052Z,30.14
2023-08-16T15:44:44.901Z,30.17
2023-08-16T15:47:16.014Z,30.58
2023-08-16T15:49:49.727Z,31.16
2023-08-16T15:52:21.987Z,31.70
2023-08-16T15:54:52.078Z,32.17
2023-08-16T15:57:22.188Z,32.69
2023-08-16T15:59:53.910Z,32.99
2023-08-16T16:02:24.118Z,32.48
2023-08-16T16:04:58.129Z,32.43
2023-08-16T16:07:30.227Z,32.58
2023-08-16T16:10:01.147Z,32.91
2023-08-16T16:12:33.255Z,32.90
2023-08-16T16:15:06.299Z,32.80
2023-08-16T16:17:37.282Z,32.79
2023-08-16T16:20:10.794Z,32.66
2023-08-16T16:22:42.424Z,32.39
2023-08-16T16:25:13.094Z,32.76
2023-08-16T16:27:46.023Z,32.53
2023-08-16T16:30:16.129Z,32.62
2023-08-16T17:27:32.378Z,33.55
2023-08-16T17:30:09.718Z,33.79
2023-08-16T17:32:42.049Z,33.79
2023-08-16T17:35:41.276Z,33.82
2023-08-16T17:42:51.850Z,33.74
2023-08-16T17:46:20.264Z,33.07
2023-08-16T17:48:53.919Z,33.04
2023-08-16T17:51:26.636Z,32.84
2023-08-16T17:53:57.188Z,33.00
2023-08-16T17:57:24.716Z,33.13
2023-08-16T18:01:16.068Z,32.90
2023-08-16T18:04:20.068Z,33.28
2023-08-16T18:15:51.622Z,33.50
2023-08-16T18:18:22.666Z,33.06
2023-08-16T18:21:19.629Z,33.28
2023-08-16T18:23:50.991Z,33.18
2023-08-16T18:26:24.989Z,32.62
2023-08-16T18:28:55.460Z,32.24
2023-08-16T18:31:25.387Z,32.01
2023-08-16T18:33:57.725Z,32.48
2023-08-16T18:36:28.957Z,32.24
2023-08-16T18:43:58.700Z,32.08
2023-08-16T18:46:56.931Z,32.69
2023-08-16T18:53:54.168Z,32.04
2023-08-16T19:01:34.007Z,31.82
2023-08-16T19:04:10.760Z,31.44
2023-08-16T19:06:42.665Z,31.22
2023-08-16T19:17:00.861Z,31.51
2023-08-16T19:20:00.286Z,31.36
2023-08-16T19:23:32.414Z,31.49
2023-08-16T19:26:29.362Z,31.06
2023-08-16T19:29:04.137Z,30.83
2023-08-16T19:36:03.050Z,30.60
2023-08-16T19:39:00.997Z,30.88
2023-08-16T19:49:05.755Z,30.47
2023-08-16T19:52:26.359Z,30.45
2023-08-16T19:54:57.432Z,30.12
2023-08-16T19:57:30.808Z,29.79
2023-08-16T20:00:00.997Z,29.74
2023-08-16T20:02:44.147Z,29.69
2023-08-16T20:05:18.416Z,29.51
2023-08-16T20:07:51.360Z,29.46
2023-08-16T20:10:21.805Z,29.25
2023-08-16T20:12:52.154Z,29.19
2023-08-16T20:15:23.121Z,29.03
2023-08-16T20:17:53.236Z,28.83
2023-08-16T20:20:23.772Z,28.68
2023-08-16T20:22:55.001Z,28.54
2023-08-16T20:25:26.826Z,28.42
2023-08-16T20:27:57.748Z,28.26
2023-08-16T20:30:31.127Z,28.04
2023-08-16T20:33:02.994Z,27.50
2023-08-16T20:35:34.793Z,27.36
2023-08-16T20:38:05.155Z,27.23
2023-08-16T20:40:36.745Z,27.04
2023-08-16T20:43:10.757Z,26.85
2023-08-16T20:45:44.308Z,26.59
2023-08-16T20:48:14.719Z,26.42
2023-08-16T20:50:45.044Z,26.25
2023-08-16T20:53:17.093Z,25.96
2023-08-16T20:55:50.894Z,25.69
2023-08-16T20:58:21.454Z,25.40
2023-08-16T21:00:55.004Z,25.16
2023-08-16T21:03:28.333Z,24.89
2023-08-16T21:06:00.414Z,24.71
2023-08-16T21:08:30.637Z,24.53
2023-08-16T21:11:00.564Z,24.31
2023-08-16T21:13:34.323Z,24.19
2023-08-16T21:16:06.632Z,24.10
2023-08-16T21:18:39.315Z,23.92
2023-08-16T21:21:09.320Z,23.71
2023-08-16T21:23:45.569Z,23.65
2023-08-16T21:26:18.034Z,23.66
2023-08-16T21:28:49.243Z,23.51
2023-08-16T21:31:19.384Z,23.30
2023-08-16T21:33:52.394Z,23.11
2023-08-16T21:36:25.953Z,23.11
2023-08-16T21:39:00.462Z,23.00
2023-08-16T21:41:31.798Z,22.89
2023-08-16T21:44:04.992Z,22.86
2023-08-16T21:46:40.668Z,22.76
2023-08-16T21:49:14.858Z,22.72
2023-08-16T21:51:46.469Z,22.60
2023-08-16T21:54:20.713Z,22.53
2023-08-16T21:56:53.049Z,22.38
2023-08-16T21:59:25.896Z,22.29
2023-08-16T22:01:58.016Z,22.25
2023-08-16T22:04:30.191Z,22.19
2023-08-16T22:07:00.924Z,22.05
2023-08-16T22:09:31.406Z,21.91
2023-08-16T22:12:04.789Z,21.78
2023-08-16T22:14:41.459Z,21.70
2023-08-16T22:17:13.494Z,21.53
2023-08-16T22:19:43.869Z,21.43
2023-08-16T22:22:13.832Z,21.33
2023-08-16T22:24:48.584Z,21.20
2023-08-16T22:27:21.796Z,21.12
2023-08-16T22:29:52.229Z,20.99
2023-08-16T22:32:28.488Z,20.94
2023-08-16T22:35:00.593Z,20.89
2023-08-16T22:37:32.184Z,20.94
2023-08-16T22:40:06.519Z,20.86
2023-08-16T22:42:36.689Z,20.81
2023-08-16T22:45:11.376Z,20.82
2023-08-16T22:47:48.983Z,20.82
2023-08-16T22:50:21.890Z,20.75
2023-08-16T22:52:54.431Z,20.59
2023-08-16T22:55:25.206Z,20.44
2023-08-16T22:57:58.504Z,20.41
2023-08-16T23:00:28.444Z,20.48
2023-08-16T23:02:59.738Z,20.47
2023-08-16T23:05:31.401Z,20.40
2023-08-16T23:08:02.002Z,20.31
2023-08-16T23:10:35.006Z,20.26
2023-08-16T23:13:06.483Z,20.21
2023-08-16T23:15:40.913Z,20.18
2023-08-16T23:18:16.235Z,20.17
2023-08-16T23:20:48.285Z,20.14
2023-08-16T23:23:19.493Z,19.96
2023-08-16T23:25:52.478Z,19.90
2023-08-16T23:28:27.391Z,19.92
2023-08-16T23:30:59.003Z,19.86
2023-08-16T23:33:31.022Z,19.73
2023-08-16T23:36:05.037Z,19.67
2023-08-16T23:38:37.767Z,19.62
2023-08-16T23:41:08.235Z,19.63
2023-08-16T23:43:39.851Z,19.63
2023-08-16T23:46:13.238Z,19.58
2023-08-16T23:48:48.234Z,19.55
2023-08-16T23:51:19.652Z,19.58
2023-08-16T23:53:51.224Z,19.54
2023-08-16T23:56:27.368Z,19.55
2023-08-16T23:59:00.245Z,19.48
